sensor_id;sensor_type;location;lat;lon;timestamp;temperature;humidity
24382;DHT22;12502;50.678;7.172;2023-05-16T00:02:42;12.00;99.90
24382;DHT22;12502;50.678;7.172;2023-05-16T00:07:45;12.10;99.90
24382;DHT22;12502;50.678;7.172;2023-05-16T00:12:47;11.90;99.90
24382;DHT22;12502;50.678;7.172;2023-05-16T00:17:53;11.80;99.90
24382;DHT22;12502;50.678;7.172;2023-05-16T00:22:59;11.80;99.90
24382;DHT22;12502;50.678;7.172;2023-05-16T00:28:01;11.90;99.90
24382;DHT22;12502;50.678;7.172;2023-05-16T00:33:03;11.80;99.90
24382;DHT22;12502;50.678;7.172;2023-05-16T00:38:05;11.40;99.90
24382;DHT22;12502;50.678;7.172;2023-05-16T00:43:07;11.30;99.90
24382;DHT22;12502;50.678;7.172;2023-05-16T00:48:09;11.20;99.90
24382;DHT22;12502;50.678;7.172;2023-05-16T00:53:11;11.20;99.90
24382;DHT22;12502;50.678;7.172;2023-05-16T00:58:14;11.10;99.90
24382;DHT22;12502;50.678;7.172;2023-05-16T01:03:16;11.20;99.90
24382;DHT22;12502;50.678;7.172;2023-05-16T01:08:18;11.10;99.90
24382;DHT22;12502;50.678;7.172;2023-05-16T01:13:32;11.00;99.90
24382;DHT22;12502;50.678;7.172;2023-05-16T01:18:41;10.80;99.90
24382;DHT22;12502;50.678;7.172;2023-05-16T01:23:51;10.80;99.90
24382;DHT22;12502;50.678;7.172;2023-05-16T01:28:56;10.80;99.90
24382;DHT22;12502;50.678;7.172;2023-05-16T01:33:59;10.70;99.90
24382;DHT22;12502;50.678;7.172;2023-05-16T01:44:16;10.60;99.90
24382;DHT22;12502;50.678;7.172;2023-05-16T01:49:21;10.60;99.90
24382;DHT22;12502;50.678;7.172;2023-05-16T01:54:25;10.60;99.90
24382;DHT22;12502;50.678;7.172;2023-05-16T01:59:30;10.60;99.90
24382;DHT22;12502;50.678;7.172;2023-05-16T02:04:33;10.50;99.90
24382;DHT22;12502;50.678;7.172;2023-05-16T02:09:34;10.60;99.90
24382;DHT22;12502;50.678;7.172;2023-05-16T02:14:36;10.50;99.90
24382;DHT22;12502;50.678;7.172;2023-05-16T02:19:38;10.30;99.90
24382;DHT22;12502;50.678;7.172;2023-05-16T02:24:40;10.30;99.90
24382;DHT22;12502;50.678;7.172;2023-05-16T02:29:41;10.30;99.90
24382;DHT22;12502;50.678;7.172;2023-05-16T02:34:43;10.40;99.90
24382;DHT22;12502;50.678;7.172;2023-05-16T02:39:45;10.40;99.90
24382;DHT22;12502;50.678;7.172;2023-05-16T02:44:46;10.40;99.90
24382;DHT22;12502;50.678;7.172;2023-05-16T02:49:48;10.30;99.90
24382;DHT22;12502;50.678;7.172;2023-05-16T02:54:49;10.30;99.90
24382;DHT22;12502;50.678;7.172;2023-05-16T03:00:11;10.20;99.90
24382;DHT22;12502;50.678;7.172;2023-05-16T03:05:16;10.10;99.90
24382;DHT22;12502;50.678;7.172;2023-05-16T03:10:19;10.00;99.90
24382;DHT22;12502;50.678;7.172;2023-05-16T03:15:21;9.80;99.90
24382;DHT22;12502;50.678;7.172;2023-05-16T03:20:27;10.50;99.90
24382;DHT22;12502;50.678;7.172;2023-05-16T03:25:29;9.70;99.90
24382;DHT22;12502;50.678;7.172;2023-05-16T03:30:30;9.60;99.90
24382;DHT22;12502;50.678;7.172;2023-05-16T03:35:32;9.40;99.90
24382;DHT22;12502;50.678;7.172;2023-05-16T03:40:35;9.10;99.90
24382;DHT22;12502;50.678;7.172;2023-05-16T03:45:36;9.20;99.90
24382;DHT22;12502;50.678;7.172;2023-05-16T03:50:39;9.10;99.90
24382;DHT22;12502;50.678;7.172;2023-05-16T03:55:41;9.00;99.90
24382;DHT22;12502;50.678;7.172;2023-05-16T04:00:44;9.00;99.90
24382;DHT22;12502;50.678;7.172;2023-05-16T04:05:47;8.90;99.90
24382;DHT22;12502;50.678;7.172;2023-05-16T04:11:01;8.90;99.90
24382;DHT22;12502;50.678;7.172;2023-05-16T04:16:02;8.90;99.90
24382;DHT22;12502;50.678;7.172;2023-05-16T04:21:07;8.80;99.90
24382;DHT22;12502;50.678;7.172;2023-05-16T04:26:11;8.80;99.90
24382;DHT22;12502;50.678;7.172;2023-05-16T04:31:13;8.70;99.90
24382;DHT22;12502;50.678;7.172;2023-05-16T04:36:16;8.80;99.90
24382;DHT22;12502;50.678;7.172;2023-05-16T04:41:18;8.80;99.90
24382;DHT22;12502;50.678;7.172;2023-05-16T04:46:20;8.70;99.90
24382;DHT22;12502;50.678;7.172;2023-05-16T04:51:22;8.90;99.90
24382;DHT22;12502;50.678;7.172;2023-05-16T04:56:24;8.90;99.90
24382;DHT22;12502;50.678;7.172;2023-05-16T05:01:28;8.90;99.90
24382;DHT22;12502;50.678;7.172;2023-05-16T05:06:30;8.70;99.90
24382;DHT22;12502;50.678;7.172;2023-05-16T05:11:33;8.60;99.90
24382;DHT22;12502;50.678;7.172;2023-05-16T05:16:34;8.60;99.90
24382;DHT22;12502;50.678;7.172;2023-05-16T05:21:37;8.50;99.90
24382;DHT22;12502;50.678;7.172;2023-05-16T05:26:39;8.40;99.90
24382;DHT22;12502;50.678;7.172;2023-05-16T05:31:43;8.40;99.90
24382;DHT22;12502;50.678;7.172;2023-05-16T05:36:45;8.40;99.90
24382;DHT22;12502;50.678;7.172;2023-05-16T05:41:47;8.30;99.90
24382;DHT22;12502;50.678;7.172;2023-05-16T05:46:48;8.30;99.90
24382;DHT22;12502;50.678;7.172;2023-05-16T05:51:50;8.20;99.90
24382;DHT22;12502;50.678;7.172;2023-05-16T05:56:52;8.20;99.90
24382;DHT22;12502;50.678;7.172;2023-05-16T06:01:54;8.30;99.90
24382;DHT22;12502;50.678;7.172;2023-05-16T06:06:56;8.20;99.90
24382;DHT22;12502;50.678;7.172;2023-05-16T06:11:58;8.20;99.90
24382;DHT22;12502;50.678;7.172;2023-05-16T06:17:00;8.30;99.90
24382;DHT22;12502;50.678;7.172;2023-05-16T06:22:02;8.30;99.90
24382;DHT22;12502;50.678;7.172;2023-05-16T06:27:05;8.30;99.90
24382;DHT22;12502;50.678;7.172;2023-05-16T06:37:15;8.60;99.90
24382;DHT22;12502;50.678;7.172;2023-05-16T06:42:16;8.50;99.90
24382;DHT22;12502;50.678;7.172;2023-05-16T06:47:18;8.60;99.90
24382;DHT22;12502;50.678;7.172;2023-05-16T06:52:20;9.00;99.90
24382;DHT22;12502;50.678;7.172;2023-05-16T06:57:22;9.10;99.90
24382;DHT22;12502;50.678;7.172;2023-05-16T07:02:24;8.80;99.90
24382;DHT22;12502;50.678;7.172;2023-05-16T07:07:26;8.90;99.90
24382;DHT22;12502;50.678;7.172;2023-05-16T07:12:28;9.10;99.90
24382;DHT22;12502;50.678;7.172;2023-05-16T07:17:29;9.30;99.90
24382;DHT22;12502;50.678;7.172;2023-05-16T07:22:32;9.50;99.90
24382;DHT22;12502;50.678;7.172;2023-05-16T07:27:34;9.30;99.90
24382;DHT22;12502;50.678;7.172;2023-05-16T07:32:36;9.10;99.90
24382;DHT22;12502;50.678;7.172;2023-05-16T07:37:38;9.00;99.90
24382;DHT22;12502;50.678;7.172;2023-05-16T07:42:43;9.10;99.90
24382;DHT22;12502;50.678;7.172;2023-05-16T07:47:45;9.50;99.90
24382;DHT22;12502;50.678;7.172;2023-05-16T07:52:47;9.70;99.90
24382;DHT22;12502;50.678;7.172;2023-05-16T07:57:50;9.50;99.90
24382;DHT22;12502;50.678;7.172;2023-05-16T08:02:53;9.20;99.90
24382;DHT22;12502;50.678;7.172;2023-05-16T08:07:55;9.20;99.90
24382;DHT22;12502;50.678;7.172;2023-05-16T08:12:56;9.40;99.90
24382;DHT22;12502;50.678;7.172;2023-05-16T08:17:59;9.80;99.90
24382;DHT22;12502;50.678;7.172;2023-05-16T08:23:02;9.80;99.90
24382;DHT22;12502;50.678;7.172;2023-05-16T08:28:04;9.70;99.90
24382;DHT22;12502;50.678;7.172;2023-05-16T08:33:09;10.10;99.90
24382;DHT22;12502;50.678;7.172;2023-05-16T08:38:11;10.20;99.90
24382;DHT22;12502;50.678;7.172;2023-05-16T08:43:12;10.10;99.90
24382;DHT22;12502;50.678;7.172;2023-05-16T08:48:15;10.00;99.90
24382;DHT22;12502;50.678;7.172;2023-05-16T08:53:21;10.30;99.90
24382;DHT22;12502;50.678;7.172;2023-05-16T08:58:23;10.80;99.90
24382;DHT22;12502;50.678;7.172;2023-05-16T09:03:26;11.30;99.90
24382;DHT22;12502;50.678;7.172;2023-05-16T09:08:29;11.30;99.90
24382;DHT22;12502;50.678;7.172;2023-05-16T09:13:33;11.80;99.90
24382;DHT22;12502;50.678;7.172;2023-05-16T09:18:35;11.10;99.90
24382;DHT22;12502;50.678;7.172;2023-05-16T09:23:39;11.10;99.90
24382;DHT22;12502;50.678;7.172;2023-05-16T09:28:42;11.30;99.90
24382;DHT22;12502;50.678;7.172;2023-05-16T09:33:54;11.80;99.90
24382;DHT22;12502;50.678;7.172;2023-05-16T09:38:56;11.70;99.90
24382;DHT22;12502;50.678;7.172;2023-05-16T09:43:58;11.60;99.90
24382;DHT22;12502;50.678;7.172;2023-05-16T09:49:00;11.70;99.90
24382;DHT22;12502;50.678;7.172;2023-05-16T09:54:02;12.10;99.90
24382;DHT22;12502;50.678;7.172;2023-05-16T09:59:09;12.00;99.90
24382;DHT22;12502;50.678;7.172;2023-05-16T10:04:14;11.70;99.90
24382;DHT22;12502;50.678;7.172;2023-05-16T10:09:17;12.10;99.90
24382;DHT22;12502;50.678;7.172;2023-05-16T10:14:21;12.00;99.90
24382;DHT22;12502;50.678;7.172;2023-05-16T10:19:25;11.70;99.90
24382;DHT22;12502;50.678;7.172;2023-05-16T10:24:30;12.20;99.90
24382;DHT22;12502;50.678;7.172;2023-05-16T10:29:36;12.20;99.90
24382;DHT22;12502;50.678;7.172;2023-05-16T10:34:54;12.50;99.90
24382;DHT22;12502;50.678;7.172;2023-05-16T10:39:58;12.90;99.90
24382;DHT22;12502;50.678;7.172;2023-05-16T10:45:16;13.10;99.90
24382;DHT22;12502;50.678;7.172;2023-05-16T10:55:43;13.00;99.90
24382;DHT22;12502;50.678;7.172;2023-05-16T11:00:46;13.10;99.90
24382;DHT22;12502;50.678;7.172;2023-05-16T11:05:52;13.20;99.90
24382;DHT22;12502;50.678;7.172;2023-05-16T11:16:27;13.30;99.90
24382;DHT22;12502;50.678;7.172;2023-05-16T11:26:52;13.40;99.90
24382;DHT22;12502;50.678;7.172;2023-05-16T11:31:54;14.00;99.90
24382;DHT22;12502;50.678;7.172;2023-05-16T11:36:56;13.20;99.90
24382;DHT22;12502;50.678;7.172;2023-05-16T11:42:00;13.20;99.90
24382;DHT22;12502;50.678;7.172;2023-05-16T11:47:02;13.70;99.90
24382;DHT22;12502;50.678;7.172;2023-05-16T11:52:06;13.70;99.10
24382;DHT22;12502;50.678;7.172;2023-05-16T11:57:08;13.70;99.90
24382;DHT22;12502;50.678;7.172;2023-05-16T12:02:11;14.20;99.10
24382;DHT22;12502;50.678;7.172;2023-05-16T12:07:13;14.10;98.20
24382;DHT22;12502;50.678;7.172;2023-05-16T12:12:15;14.00;99.90
24382;DHT22;12502;50.678;7.172;2023-05-16T12:17:20;13.80;99.80
24382;DHT22;12502;50.678;7.172;2023-05-16T12:22:23;13.90;99.90
24382;DHT22;12502;50.678;7.172;2023-05-16T12:27:26;14.70;99.90
24382;DHT22;12502;50.678;7.172;2023-05-16T12:32:29;14.90;98.90
24382;DHT22;12502;50.678;7.172;2023-05-16T12:37:31;14.70;98.60
24382;DHT22;12502;50.678;7.172;2023-05-16T12:42:33;14.40;99.90
24382;DHT22;12502;50.678;7.172;2023-05-16T12:47:38;14.30;98.70
24382;DHT22;12502;50.678;7.172;2023-05-16T12:52:47;14.30;99.90
24382;DHT22;12502;50.678;7.172;2023-05-16T12:57:49;14.70;99.90
24382;DHT22;12502;50.678;7.172;2023-05-16T13:02:52;14.60;99.80
24382;DHT22;12502;50.678;7.172;2023-05-16T13:07:54;14.80;99.90
24382;DHT22;12502;50.678;7.172;2023-05-16T13:12:55;14.80;99.50
24382;DHT22;12502;50.678;7.172;2023-05-16T13:18:00;14.70;99.90
24382;DHT22;12502;50.678;7.172;2023-05-16T13:23:02;15.10;98.60
24382;DHT22;12502;50.678;7.172;2023-05-16T13:28:05;15.10;96.30
24382;DHT22;12502;50.678;7.172;2023-05-16T13:33:10;15.00;97.60
24382;DHT22;12502;50.678;7.172;2023-05-16T13:38:12;15.30;98.00
24382;DHT22;12502;50.678;7.172;2023-05-16T13:43:14;15.50;96.00
24382;DHT22;12502;50.678;7.172;2023-05-16T13:48:16;15.30;97.70
24382;DHT22;12502;50.678;7.172;2023-05-16T13:53:19;14.90;99.10
24382;DHT22;12502;50.678;7.172;2023-05-16T13:58:22;15.00;99.90
24382;DHT22;12502;50.678;7.172;2023-05-16T14:03:24;14.30;99.90
24382;DHT22;12502;50.678;7.172;2023-05-16T14:08:28;14.40;99.90
24382;DHT22;12502;50.678;7.172;2023-05-16T14:13:33;14.00;99.90
24382;DHT22;12502;50.678;7.172;2023-05-16T14:18:38;14.00;99.90
24382;DHT22;12502;50.678;7.172;2023-05-16T14:23:42;14.00;99.90
24382;DHT22;12502;50.678;7.172;2023-05-16T14:28:45;14.60;99.90
24382;DHT22;12502;50.678;7.172;2023-05-16T14:33:49;15.00;99.90
24382;DHT22;12502;50.678;7.172;2023-05-16T14:44:20;14.90;99.90
24382;DHT22;12502;50.678;7.172;2023-05-16T14:49:27;14.50;99.90
24382;DHT22;12502;50.678;7.172;2023-05-16T14:54:29;14.90;99.30
24382;DHT22;12502;50.678;7.172;2023-05-16T14:59:38;14.80;95.30
24382;DHT22;12502;50.678;7.172;2023-05-16T15:04:41;15.20;96.00
24382;DHT22;12502;50.678;7.172;2023-05-16T15:09:46;15.30;94.90
24382;DHT22;12502;50.678;7.172;2023-05-16T15:14:47;14.80;95.60
24382;DHT22;12502;50.678;7.172;2023-05-16T15:19:49;14.70;95.30
24382;DHT22;12502;50.678;7.172;2023-05-16T15:24:57;14.50;93.70
24382;DHT22;12502;50.678;7.172;2023-05-16T15:29:59;14.70;93.40
24382;DHT22;12502;50.678;7.172;2023-05-16T15:35:01;15.10;94.40
24382;DHT22;12502;50.678;7.172;2023-05-16T15:40:03;15.00;92.90
24382;DHT22;12502;50.678;7.172;2023-05-16T15:45:06;14.60;92.70
24382;DHT22;12502;50.678;7.172;2023-05-16T15:50:08;14.50;93.20
24382;DHT22;12502;50.678;7.172;2023-05-16T15:55:10;14.90;94.10
24382;DHT22;12502;50.678;7.172;2023-05-16T16:00:12;15.10;93.40
24382;DHT22;12502;50.678;7.172;2023-05-16T16:05:14;14.90;95.60
24382;DHT22;12502;50.678;7.172;2023-05-16T16:10:16;14.90;95.00
24382;DHT22;12502;50.678;7.172;2023-05-16T16:15:18;14.80;96.50
24382;DHT22;12502;50.678;7.172;2023-05-16T16:20:21;14.80;97.00
24382;DHT22;12502;50.678;7.172;2023-05-16T16:25:22;15.10;96.90
24382;DHT22;12502;50.678;7.172;2023-05-16T16:30:25;14.90;96.10
24382;DHT22;12502;50.678;7.172;2023-05-16T16:35:27;14.80;96.20
24382;DHT22;12502;50.678;7.172;2023-05-16T16:40:29;14.80;96.90
24382;DHT22;12502;50.678;7.172;2023-05-16T16:45:31;15.20;98.70
24382;DHT22;12502;50.678;7.172;2023-05-16T16:50:32;14.90;96.80
24382;DHT22;12502;50.678;7.172;2023-05-16T16:55:34;14.90;97.70
24382;DHT22;12502;50.678;7.172;2023-05-16T17:00:39;14.60;97.60
24382;DHT22;12502;50.678;7.172;2023-05-16T17:05:41;14.40;96.40
24382;DHT22;12502;50.678;7.172;2023-05-16T17:10:43;14.10;96.60
24382;DHT22;12502;50.678;7.172;2023-05-16T17:15:45;14.10;98.30
24382;DHT22;12502;50.678;7.172;2023-05-16T17:20:47;13.90;98.20
24382;DHT22;12502;50.678;7.172;2023-05-16T17:25:49;13.80;98.20
24382;DHT22;12502;50.678;7.172;2023-05-16T17:30:51;13.70;98.70
24382;DHT22;12502;50.678;7.172;2023-05-16T17:35:53;13.70;97.90
24382;DHT22;12502;50.678;7.172;2023-05-16T17:40:56;13.70;97.80
24382;DHT22;12502;50.678;7.172;2023-05-16T17:45:57;13.50;99.00
24382;DHT22;12502;50.678;7.172;2023-05-16T17:51:02;13.40;99.60
24382;DHT22;12502;50.678;7.172;2023-05-16T17:56:04;13.30;99.90
24382;DHT22;12502;50.678;7.172;2023-05-16T18:01:07;13.30;99.90
24382;DHT22;12502;50.678;7.172;2023-05-16T18:06:10;13.30;99.90
24382;DHT22;12502;50.678;7.172;2023-05-16T18:11:12;13.20;99.90
24382;DHT22;12502;50.678;7.172;2023-05-16T18:16:14;13.10;99.90
24382;DHT22;12502;50.678;7.172;2023-05-16T18:21:16;13.10;99.90
24382;DHT22;12502;50.678;7.172;2023-05-16T18:26:18;12.90;99.90
24382;DHT22;12502;50.678;7.172;2023-05-16T18:31:20;12.90;99.90
24382;DHT22;12502;50.678;7.172;2023-05-16T18:36:22;12.80;99.90
24382;DHT22;12502;50.678;7.172;2023-05-16T18:41:24;12.80;99.90
24382;DHT22;12502;50.678;7.172;2023-05-16T18:46:26;12.70;99.90
24382;DHT22;12502;50.678;7.172;2023-05-16T18:51:28;12.70;99.90
24382;DHT22;12502;50.678;7.172;2023-05-16T18:56:30;12.60;99.90
24382;DHT22;12502;50.678;7.172;2023-05-16T19:01:32;12.50;99.90
24382;DHT22;12502;50.678;7.172;2023-05-16T19:06:34;12.50;99.90
24382;DHT22;12502;50.678;7.172;2023-05-16T19:11:36;12.40;99.90
24382;DHT22;12502;50.678;7.172;2023-05-16T19:16:38;12.40;99.90
24382;DHT22;12502;50.678;7.172;2023-05-16T19:21:40;12.40;99.90
24382;DHT22;12502;50.678;7.172;2023-05-16T19:26:42;12.30;99.90
24382;DHT22;12502;50.678;7.172;2023-05-16T19:31:43;12.30;99.90
24382;DHT22;12502;50.678;7.172;2023-05-16T19:36:45;12.30;99.90
24382;DHT22;12502;50.678;7.172;2023-05-16T19:41:47;12.20;99.90
24382;DHT22;12502;50.678;7.172;2023-05-16T19:46:52;12.20;99.90
24382;DHT22;12502;50.678;7.172;2023-05-16T19:51:54;12.20;99.90
24382;DHT22;12502;50.678;7.172;2023-05-16T19:56:56;12.20;99.90
24382;DHT22;12502;50.678;7.172;2023-05-16T20:02:02;12.10;99.90
24382;DHT22;12502;50.678;7.172;2023-05-16T20:07:06;12.10;99.90
24382;DHT22;12502;50.678;7.172;2023-05-16T20:12:08;12.10;99.90
24382;DHT22;12502;50.678;7.172;2023-05-16T20:17:10;12.10;99.90
24382;DHT22;12502;50.678;7.172;2023-05-16T20:22:12;12.10;99.90
24382;DHT22;12502;50.678;7.172;2023-05-16T20:27:13;12.00;99.90
24382;DHT22;12502;50.678;7.172;2023-05-16T20:32:15;12.00;99.90
24382;DHT22;12502;50.678;7.172;2023-05-16T20:37:17;12.00;99.90
24382;DHT22;12502;50.678;7.172;2023-05-16T20:42:18;12.00;99.90
24382;DHT22;12502;50.678;7.172;2023-05-16T20:47:20;12.00;99.90
24382;DHT22;12502;50.678;7.172;2023-05-16T20:52:22;11.90;99.90
24382;DHT22;12502;50.678;7.172;2023-05-16T20:57:24;11.90;99.90
24382;DHT22;12502;50.678;7.172;2023-05-16T21:02:27;11.90;99.90
24382;DHT22;12502;50.678;7.172;2023-05-16T21:07:30;11.80;99.90
24382;DHT22;12502;50.678;7.172;2023-05-16T21:12:32;11.80;99.90
24382;DHT22;12502;50.678;7.172;2023-05-16T21:17:34;11.80;99.90
24382;DHT22;12502;50.678;7.172;2023-05-16T21:22:37;11.70;99.90
24382;DHT22;12502;50.678;7.172;2023-05-16T21:27:38;11.70;99.90
24382;DHT22;12502;50.678;7.172;2023-05-16T21:32:41;11.60;99.90
24382;DHT22;12502;50.678;7.172;2023-05-16T21:37:43;11.50;99.90
24382;DHT22;12502;50.678;7.172;2023-05-16T21:42:45;11.50;99.90
24382;DHT22;12502;50.678;7.172;2023-05-16T21:47:47;11.40;99.90
24382;DHT22;12502;50.678;7.172;2023-05-16T21:52:49;11.40;99.90
24382;DHT22;12502;50.678;7.172;2023-05-16T21:57:51;11.40;99.90
24382;DHT22;12502;50.678;7.172;2023-05-16T22:02:55;11.40;99.90
24382;DHT22;12502;50.678;7.172;2023-05-16T22:07:57;11.40;99.90
24382;DHT22;12502;50.678;7.172;2023-05-16T22:12:59;11.30;99.90
24382;DHT22;12502;50.678;7.172;2023-05-16T22:18:00;11.30;99.90
24382;DHT22;12502;50.678;7.172;2023-05-16T22:23:02;11.30;99.90
24382;DHT22;12502;50.678;7.172;2023-05-16T22:28:05;11.20;99.90
24382;DHT22;12502;50.678;7.172;2023-05-16T22:33:07;11.10;99.90
24382;DHT22;12502;50.678;7.172;2023-05-16T22:38:10;11.10;99.90
24382;DHT22;12502;50.678;7.172;2023-05-16T22:43:12;11.10;99.90
24382;DHT22;12502;50.678;7.172;2023-05-16T22:48:14;11.10;99.90
24382;DHT22;12502;50.678;7.172;2023-05-16T22:53:16;11.10;99.90
24382;DHT22;12502;50.678;7.172;2023-05-16T22:58:18;11.10;99.90
24382;DHT22;12502;50.678;7.172;2023-05-16T23:03:21;11.00;99.90
24382;DHT22;12502;50.678;7.172;2023-05-16T23:08:23;11.00;99.90
24382;DHT22;12502;50.678;7.172;2023-05-16T23:13:25;10.90;99.90
24382;DHT22;12502;50.678;7.172;2023-05-16T23:18:26;10.80;99.90
24382;DHT22;12502;50.678;7.172;2023-05-16T23:23:28;10.80;99.90
24382;DHT22;12502;50.678;7.172;2023-05-16T23:28:30;10.90;99.90
24382;DHT22;12502;50.678;7.172;2023-05-16T23:33:32;10.80;99.90
24382;DHT22;12502;50.678;7.172;2023-05-16T23:38:34;10.90;99.90
24382;DHT22;12502;50.678;7.172;2023-05-16T23:43:36;10.80;99.90
24382;DHT22;12502;50.678;7.172;2023-05-16T23:48:39;10.90;99.90
24382;DHT22;12502;50.678;7.172;2023-05-16T23:53:41;10.80;99.90
24382;DHT22;12502;50.678;7.172;2023-05-16T23:58:43;10.70;99.90
